createdAt,value
2016-09-19T00:00:27.014Z,15.81
2016-09-19T00:01:27.108Z,15.78
2016-09-19T00:02:27.063Z,15.75
2016-09-19T00:03:27.109Z,15.77
2016-09-19T00:04:27.100Z,15.78
2016-09-19T00:05:27.124Z,15.78
2016-09-19T00:06:27.031Z,15.8
2016-09-19T00:07:27.054Z,15.73
2016-09-19T00:08:27.083Z,15.84
2016-09-19T00:09:27.097Z,15.89
2016-09-19T00:10:27.046Z,15.78
2016-09-19T00:11:27.012Z,15.8
2016-09-19T00:12:27.143Z,15.8
2016-09-19T00:13:27.148Z,15.73
2016-09-19T00:14:27.141Z,15.75
2016-09-19T00:15:27.142Z,15.77
2016-09-19T00:16:27.078Z,15.73
2016-09-19T00:17:27.044Z,15.74
2016-09-19T00:18:27.134Z,15.81
2016-09-19T00:19:27.158Z,15.71
2016-09-19T00:20:27.012Z,15.7
2016-09-19T00:21:27.131Z,15.73
2016-09-19T00:22:27.166Z,15.77
2016-09-19T00:23:27.021Z,15.71
2016-09-19T00:24:27.042Z,15.74
2016-09-19T00:25:27.181Z,15.67
2016-09-19T00:26:27.149Z,15.68
2016-09-19T00:27:27.067Z,15.71
2016-09-19T00:28:27.118Z,15.71
2016-09-19T00:29:27.155Z,15.7
2016-09-19T00:30:27.098Z,15.7
2016-09-19T00:31:27.163Z,15.77
2016-09-19T00:32:27.157Z,15.74
2016-09-19T00:33:27.087Z,15.71
2016-09-19T00:34:27.169Z,15.7
2016-09-19T00:35:27.046Z,15.63
2016-09-19T00:36:27.161Z,15.67
2016-09-19T00:37:27.243Z,15.65
2016-09-19T00:38:27.200Z,15.74
2016-09-19T00:39:27.218Z,15.63
2016-09-19T00:40:27.221Z,15.71
2016-09-19T00:41:27.294Z,15.63
2016-09-19T00:42:27.144Z,15.63
2016-09-19T00:43:27.232Z,15.68
2016-09-19T00:44:27.113Z,15.68
2016-09-19T00:45:27.194Z,15.63
2016-09-19T00:46:27.119Z,15.71
2016-09-19T00:47:27.156Z,15.71
2016-09-19T00:48:27.236Z,15.62
2016-09-19T00:49:27.076Z,15.68
2016-09-19T00:50:27.236Z,15.67
2016-09-19T00:51:27.251Z,15.67
2016-09-19T00:52:27.258Z,15.65
2016-09-19T00:53:27.131Z,15.73
2016-09-19T00:54:27.235Z,15.62
2016-09-19T00:55:27.108Z,15.73
2016-09-19T00:56:27.183Z,15.7
2016-09-19T00:57:27.226Z,15.7
2016-09-19T00:58:27.203Z,15.6
2016-09-19T00:59:27.244Z,15.62
2016-09-19T01:00:27.701Z,15.53
2016-09-19T01:01:27.314Z,15.6
2016-09-19T01:02:27.221Z,15.58
2016-09-19T01:03:27.288Z,15.59
2016-09-19T01:04:27.239Z,15.58
2016-09-19T01:05:27.244Z,15.58
2016-09-19T01:06:27.228Z,15.62
2016-09-19T01:07:27.261Z,15.58
2016-09-19T01:08:27.172Z,15.53
2016-09-19T01:09:27.228Z,15.55
2016-09-19T01:10:27.266Z,15.59
2016-09-19T01:11:27.302Z,15.55
2016-09-19T01:12:27.181Z,15.59
2016-09-19T01:13:27.246Z,15.56
2016-09-19T01:14:27.279Z,15.53
2016-09-19T01:15:27.204Z,15.59
2016-09-19T01:16:27.243Z,15.58
2016-09-19T01:17:27.244Z,15.47
2016-09-19T01:18:27.253Z,15.55
2016-09-19T01:19:27.298Z,15.53
2016-09-19T01:20:27.253Z,15.55
2016-09-19T01:21:27.249Z,15.56
2016-09-19T01:22:27.302Z,15.45
2016-09-19T01:23:27.344Z,15.51
2016-09-19T01:24:27.314Z,15.51
2016-09-19T01:25:27.286Z,15.52
2016-09-19T01:26:27.299Z,15.51
2016-09-19T01:27:27.351Z,15.37
2016-09-19T01:28:27.375Z,15.41
2016-09-19T01:29:28.211Z,15.51
2016-09-19T01:30:27.288Z,15.43
2016-09-19T01:31:27.368Z,15.45
2016-09-19T01:32:27.231Z,15.41
2016-09-19T01:33:27.292Z,15.44
2016-09-19T01:34:27.253Z,15.43
2016-09-19T01:35:27.262Z,15.49
2016-09-19T01:36:27.388Z,15.4
2016-09-19T01:37:27.387Z,15.41
2016-09-19T01:38:27.405Z,15.49
2016-09-19T01:39:27.337Z,15.47
2016-09-19T01:40:27.281Z,15.37
2016-09-19T01:41:27.400Z,15.4
2016-09-19T01:42:27.232Z,15.4
2016-09-19T01:43:27.326Z,15.38
2016-09-19T01:44:27.268Z,15.41
2016-09-19T01:45:27.355Z,15.47
2016-09-19T01:46:27.330Z,15.44
2016-09-19T01:47:27.367Z,15.35
2016-09-19T01:48:27.415Z,15.43
2016-09-19T01:49:27.451Z,15.33
2016-09-19T01:50:27.340Z,15.4
2016-09-19T01:51:27.341Z,15.47
2016-09-19T01:52:27.348Z,15.38
2016-09-19T01:53:27.424Z,15.49
2016-09-19T01:54:27.255Z,15.38
2016-09-19T01:55:27.341Z,15.31
2016-09-19T01:56:27.347Z,15.41
2016-09-19T01:57:27.363Z,15.34
2016-09-19T01:58:27.304Z,15.38
2016-09-19T01:59:27.435Z,15.35
2016-09-19T02:00:27.421Z,15.3
2016-09-19T02:01:27.480Z,15.38
2016-09-19T02:02:27.420Z,15.35
2016-09-19T02:03:27.460Z,15.31
2016-09-19T02:04:27.425Z,15.27
2016-09-19T02:05:27.339Z,15.37
2016-09-19T02:06:27.467Z,15.34
2016-09-19T02:07:27.318Z,15.35
2016-09-19T02:08:27.449Z,15.27
2016-09-19T02:09:27.443Z,15.26
2016-09-19T02:10:27.350Z,15.34
2016-09-19T02:11:27.382Z,15.26
2016-09-19T02:12:27.441Z,15.34
2016-09-19T02:13:27.400Z,15.27
2016-09-19T02:14:27.437Z,15.25
2016-09-19T02:15:27.463Z,15.34
2016-09-19T02:16:27.330Z,15.27
2016-09-19T02:17:27.420Z,15.22
2016-09-19T02:18:27.494Z,15.3
2016-09-19T02:19:27.346Z,15.33
2016-09-19T02:20:27.483Z,15.25
2016-09-19T02:21:27.497Z,15.34
2016-09-19T02:22:27.419Z,15.26
2016-09-19T02:23:27.435Z,15.26
2016-09-19T02:24:27.492Z,15.3
2016-09-19T02:25:27.404Z,15.34
2016-09-19T02:26:27.540Z,15.33
2016-09-19T02:27:27.523Z,15.27
2016-09-19T02:28:27.441Z,15.25
2016-09-19T02:29:27.544Z,15.27
2016-09-19T02:30:27.456Z,15.3
2016-09-19T02:31:27.463Z,15.26
2016-09-19T02:32:27.434Z,15.26
2016-09-19T02:33:27.425Z,15.31
2016-09-19T02:34:27.456Z,15.31
2016-09-19T02:35:27.541Z,15.26
2016-09-19T02:36:27.446Z,15.3
2016-09-19T02:37:27.511Z,15.31
2016-09-19T02:38:27.563Z,15.33
2016-09-19T02:39:27.461Z,15.3
2016-09-19T02:40:27.513Z,15.19
2016-09-19T02:41:27.470Z,15.26
2016-09-19T02:42:27.492Z,15.23
2016-09-19T02:43:27.456Z,15.18
2016-09-19T02:44:27.539Z,15.23
2016-09-19T02:45:27.544Z,15.19
2016-09-19T02:46:27.450Z,15.26
2016-09-19T02:47:27.538Z,15.26
2016-09-19T02:48:27.500Z,15.18
2016-09-19T02:49:27.500Z,15.26
2016-09-19T02:50:27.506Z,15.2
2016-09-19T02:51:27.502Z,15.16
2016-09-19T02:52:27.452Z,15.26
2016-09-19T02:53:27.556Z,15.19
2016-09-19T02:54:27.604Z,15.19
2016-09-19T02:55:27.545Z,15.18
2016-09-19T02:56:27.584Z,15.18
2016-09-19T02:57:27.588Z,15.23
2016-09-19T02:58:27.500Z,15.19
2016-09-19T02:59:27.596Z,15.26
2016-09-19T03:00:27.604Z,15.2
2016-09-19T03:01:27.591Z,15.22
2016-09-19T03:02:27.778Z,15.22
2016-09-19T03:03:27.481Z,15.27
2016-09-19T03:04:27.558Z,15.2
2016-09-19T03:05:27.562Z,15.19
2016-09-19T03:06:27.567Z,15.19
2016-09-19T03:07:27.559Z,15.19
2016-09-19T03:08:27.571Z,15.18
2016-09-19T03:09:27.523Z,15.18
2016-09-19T03:10:27.562Z,15.18
2016-09-19T03:11:27.569Z,15.12
2016-09-19T03:12:27.609Z,15.18
2016-09-19T03:13:27.568Z,15.16
2016-09-19T03:14:27.650Z,15.12
2016-09-19T03:15:27.582Z,15.16
2016-09-19T03:16:27.549Z,15.22
2016-09-19T03:17:27.662Z,15.16
2016-09-19T03:18:27.588Z,15.16
2016-09-19T03:19:27.551Z,15.12
2016-09-19T03:20:27.592Z,15.19
2016-09-19T03:21:27.670Z,15.15
2016-09-19T03:22:27.644Z,15.13
2016-09-19T03:23:27.595Z,15.19
2016-09-19T03:24:27.691Z,15.1
2016-09-19T03:25:27.694Z,15.12
2016-09-19T03:26:27.698Z,15.05
2016-09-19T03:27:27.655Z,15.05
2016-09-19T03:28:27.571Z,15.1
2016-09-19T03:29:27.626Z,15.1
2016-09-19T03:30:27.663Z,15.07
2016-09-19T03:31:27.671Z,15.08
2016-09-19T03:32:27.625Z,15.04
2016-09-19T03:33:27.629Z,15.12
2016-09-19T03:34:27.665Z,15.1
2016-09-19T03:35:27.612Z,14.97
2016-09-19T03:36:27.633Z,15.05
2016-09-19T03:37:27.677Z,15.07
2016-09-19T03:38:27.703Z,15.05
2016-09-19T03:39:27.652Z,15.1
2016-09-19T03:40:27.657Z,15.04
2016-09-19T03:41:27.686Z,14.97
2016-09-19T03:42:27.652Z,15.13
2016-09-19T03:43:27.761Z,15.1
2016-09-19T03:44:27.704Z,15
2016-09-19T03:45:27.707Z,15
2016-09-19T03:46:27.701Z,15.1
2016-09-19T03:47:27.665Z,15.04
2016-09-19T03:48:27.627Z,15.01
2016-09-19T03:49:27.679Z,14.94
2016-09-19T03:50:27.694Z,14.98
2016-09-19T03:51:27.735Z,14.95
2016-09-19T03:52:27.611Z,14.98
2016-09-19T03:53:27.697Z,14.95
2016-09-19T03:54:27.760Z,14.97
2016-09-19T03:55:27.756Z,15
2016-09-19T03:56:27.661Z,14.98
2016-09-19T03:57:27.735Z,14.9
2016-09-19T03:58:27.750Z,14.9
2016-09-19T03:59:27.651Z,14.9
2016-09-19T04:00:27.698Z,14.95
2016-09-19T04:01:27.704Z,14.9
2016-09-19T04:02:27.750Z,14.93
2016-09-19T04:03:27.756Z,14.9
2016-09-19T04:04:27.792Z,14.93
2016-09-19T04:05:27.687Z,14.89
2016-09-19T04:06:27.812Z,14.83
2016-09-19T04:07:27.745Z,14.87
2016-09-19T04:08:27.795Z,14.85
2016-09-19T04:09:27.690Z,14.93
2016-09-19T04:10:28.636Z,14.83
2016-09-19T04:11:27.811Z,14.9
2016-09-19T04:12:27.790Z,14.87
2016-09-19T04:13:27.784Z,14.89
2016-09-19T04:14:27.829Z,14.85
2016-09-19T04:15:27.765Z,14.9
2016-09-19T04:16:27.746Z,14.86
2016-09-19T04:17:27.835Z,14.85
2016-09-19T04:18:27.842Z,14.93
2016-09-19T04:19:27.920Z,14.87
2016-09-19T04:20:27.765Z,14.93
2016-09-19T04:21:27.806Z,14.8
2016-09-19T04:22:27.680Z,14.79
2016-09-19T04:23:27.793Z,14.8
2016-09-19T04:24:27.771Z,14.69
2016-09-19T04:25:27.789Z,14.82
2016-09-19T04:26:27.792Z,14.77
2016-09-19T04:27:27.708Z,14.85
2016-09-19T04:28:27.825Z,14.75
2016-09-19T04:29:27.869Z,14.79
2016-09-19T04:30:27.826Z,14.83
2016-09-19T04:31:27.732Z,14.79
2016-09-19T04:32:27.950Z,14.74
2016-09-19T04:33:27.854Z,14.79
2016-09-19T04:34:27.844Z,14.79
2016-09-19T04:35:27.893Z,14.7
2016-09-19T04:36:27.856Z,14.74
2016-09-19T04:37:27.780Z,14.77
2016-09-19T04:38:27.906Z,14.75
2016-09-19T04:39:27.809Z,14.7
2016-09-19T04:40:27.895Z,14.77
2016-09-19T04:41:27.904Z,14.75
2016-09-19T04:42:27.866Z,14.69
2016-09-19T04:43:27.836Z,14.67
2016-09-19T04:44:27.795Z,14.67
2016-09-19T04:45:27.887Z,14.71
2016-09-19T04:46:27.857Z,14.71
2016-09-19T04:47:27.829Z,14.74
2016-09-19T04:48:27.887Z,14.71
2016-09-19T04:49:27.854Z,14.66
2016-09-19T04:50:27.887Z,14.77
2016-09-19T04:51:27.806Z,14.66
2016-09-19T04:52:27.893Z,14.57
2016-09-19T04:53:27.888Z,14.74
2016-09-19T04:54:27.860Z,14.71
2016-09-19T04:55:27.936Z,14.66
2016-09-19T04:56:27.784Z,14.64
2016-09-19T04:57:27.903Z,14.71
2016-09-19T04:58:27.906Z,14.69
2016-09-19T04:59:27.944Z,14.69
2016-09-19T05:00:27.916Z,14.59
2016-09-19T05:01:27.885Z,14.74
2016-09-19T05:02:27.919Z,14.7
2016-09-19T05:03:27.948Z,14.7
2016-09-19T05:04:27.893Z,14.66
2016-09-19T05:05:27.927Z,14.69
2016-09-19T05:06:27.893Z,14.71
2016-09-19T05:07:27.897Z,14.69
2016-09-19T05:08:27.980Z,14.66
2016-09-19T05:09:27.870Z,14.69
2016-09-19T05:10:27.869Z,14.6
2016-09-19T05:11:27.995Z,14.69
2016-09-19T05:12:27.917Z,14.67
2016-09-19T05:13:27.991Z,14.74
2016-09-19T05:14:27.998Z,14.75
2016-09-19T05:15:28.011Z,14.66
2016-09-19T05:16:27.974Z,14.66
2016-09-19T05:17:27.929Z,14.61
2016-09-19T05:18:27.965Z,14.67
2016-09-19T05:19:27.903Z,14.64
2016-09-19T05:20:27.940Z,14.56
2016-09-19T05:21:27.920Z,14.59
2016-09-19T05:22:27.897Z,14.64
2016-09-19T05:23:28.019Z,14.63
2016-09-19T05:24:28.027Z,14.64
2016-09-19T05:25:27.996Z,14.71
2016-09-19T05:26:27.865Z,14.64
2016-09-19T05:27:27.965Z,14.64
2016-09-19T05:28:27.918Z,14.64
2016-09-19T05:29:28.033Z,14.6
2016-09-19T05:30:27.962Z,14.67
2016-09-19T05:31:28.047Z,14.56
2016-09-19T05:32:27.970Z,14.66
2016-09-19T05:33:27.975Z,14.61
2016-09-19T05:34:27.986Z,14.63
2016-09-19T05:35:27.977Z,14.74
2016-09-19T05:36:28.082Z,14.71
2016-09-19T05:37:28.020Z,14.75
2016-09-19T05:38:28.022Z,14.7
2016-09-19T05:39:27.992Z,14.74
2016-09-19T05:40:28.061Z,14.69
2016-09-19T05:41:28.035Z,14.59
2016-09-19T05:42:27.964Z,14.7
2016-09-19T05:43:28.009Z,14.67
2016-09-19T05:44:28.080Z,14.7
2016-09-19T05:45:28.000Z,14.71
2016-09-19T05:46:27.999Z,14.75
2016-09-19T05:47:28.090Z,14.71
2016-09-19T05:48:27.967Z,14.63
2016-09-19T05:49:28.020Z,14.56
2016-09-19T05:50:27.966Z,14.59
2016-09-19T05:51:28.057Z,14.6
2016-09-19T05:52:28.107Z,14.56
2016-09-19T05:53:28.119Z,14.56
2016-09-19T05:54:28.124Z,14.51
2016-09-19T05:55:28.059Z,14.53
2016-09-19T05:56:27.999Z,14.56
2016-09-19T05:57:28.108Z,14.48
2016-09-19T05:58:28.008Z,14.49
2016-09-19T05:59:28.147Z,14.66
2016-09-19T06:00:28.019Z,14.56
2016-09-19T06:01:28.111Z,14.59
2016-09-19T06:02:28.142Z,14.57
2016-09-19T06:03:28.051Z,14.56
2016-09-19T06:04:28.143Z,14.59
2016-09-19T06:05:28.070Z,14.64
2016-09-19T06:06:28.141Z,14.57
2016-09-19T06:07:28.014Z,14.57
2016-09-19T06:08:28.073Z,14.59
2016-09-19T06:09:28.032Z,14.63
2016-09-19T06:10:28.159Z,14.52
2016-09-19T06:11:28.137Z,14.59
2016-09-19T06:12:28.164Z,14.6
2016-09-19T06:13:28.151Z,14.6
2016-09-19T06:14:28.207Z,14.57
2016-09-19T06:15:28.149Z,14.66
2016-09-19T06:16:28.121Z,14.59
2016-09-19T06:17:28.120Z,14.61
2016-09-19T06:18:28.133Z,14.6
2016-09-19T06:19:28.138Z,14.6
2016-09-19T06:20:28.139Z,14.8
2016-09-19T06:21:28.102Z,14.95
2016-09-19T06:22:28.115Z,15.1
2016-09-19T06:23:28.093Z,15.27
2016-09-19T06:24:28.174Z,15.55
2016-09-19T06:25:28.176Z,15.75
2016-09-19T06:26:28.043Z,15.89
2016-09-19T06:27:28.219Z,16.13
2016-09-19T06:28:28.250Z,16.13
2016-09-19T06:29:28.126Z,16.22
2016-09-19T06:30:28.200Z,16.48
2016-09-19T06:31:28.136Z,16.57
2016-09-19T06:32:28.133Z,16.77
2016-09-19T06:33:28.220Z,16.49
2016-09-19T06:34:28.156Z,16.45
2016-09-19T06:35:28.091Z,16.22
2016-09-19T06:36:28.186Z,16.13
2016-09-19T06:37:28.233Z,16.18
2016-09-19T06:38:28.235Z,16.08
2016-09-19T06:39:28.180Z,16.06
2016-09-19T06:40:28.172Z,15.98
2016-09-19T06:41:28.208Z,15.93
2016-09-19T06:42:28.097Z,15.81
2016-09-19T06:43:28.167Z,15.58
2016-09-19T06:44:28.197Z,15.56
2016-09-19T06:45:28.215Z,15.59
2016-09-19T06:46:28.300Z,15.84
2016-09-19T06:47:28.184Z,15.89
2016-09-19T06:48:28.200Z,15.95
2016-09-19T06:49:28.172Z,15.95
2016-09-19T06:50:28.269Z,15.99
2016-09-19T06:51:28.199Z,16.16
2016-09-19T06:52:28.175Z,16.4
2016-09-19T06:53:28.241Z,16.47
2016-09-19T06:54:28.246Z,16.4
2016-09-19T06:55:28.207Z,16.1
2016-09-19T06:56:28.251Z,15.99
2016-09-19T06:57:28.197Z,16.08
2016-09-19T06:58:28.306Z,16.14
2016-09-19T06:59:28.321Z,15.99
2016-09-19T07:00:28.332Z,16.08
2016-09-19T07:01:28.369Z,16.02
2016-09-19T07:02:28.247Z,16.21
2016-09-19T07:03:28.313Z,16.59
2016-09-19T07:04:28.316Z,17
2016-09-19T07:05:28.271Z,17.12
2016-09-19T07:06:28.276Z,17.21
2016-09-19T07:07:28.323Z,17.49
2016-09-19T07:08:28.289Z,17.65
2016-09-19T07:09:28.213Z,17.58
2016-09-19T07:10:28.295Z,17.62
2016-09-19T07:11:28.213Z,17.1
2016-09-19T07:12:28.275Z,17.09
2016-09-19T07:13:28.327Z,17.24
2016-09-19T07:14:28.290Z,17.43
2016-09-19T07:15:28.272Z,17.54
2016-09-19T07:16:28.358Z,17.77
2016-09-19T07:17:28.228Z,17.84
2016-09-19T07:18:28.267Z,17.88
2016-09-19T07:19:28.350Z,18.06
2016-09-19T07:20:28.289Z,18.19
2016-09-19T07:21:28.214Z,18.21
2016-09-19T07:22:28.300Z,18.32
2016-09-19T07:23:28.367Z,18.36
2016-09-19T07:24:28.261Z,17.95
2016-09-19T07:25:28.218Z,17.79
2016-09-19T07:26:28.355Z,17.88
2016-09-19T07:27:28.309Z,17.79
2016-09-19T07:28:28.306Z,17.54
2016-09-19T07:29:28.371Z,17.43
2016-09-19T07:30:28.295Z,17.35
2016-09-19T07:31:28.277Z,17.57
2016-09-19T07:32:28.326Z,17.13
2016-09-19T07:33:28.289Z,17.52
2016-09-19T07:34:28.544Z,17.84
2016-09-19T07:35:28.378Z,18.13
2016-09-19T07:36:28.301Z,18.35
2016-09-19T07:37:28.421Z,18.72
2016-09-19T07:38:28.259Z,19
2016-09-19T07:39:28.388Z,19.07
2016-09-19T07:40:28.323Z,19.23
2016-09-19T07:41:28.304Z,19.3
2016-09-19T07:42:28.418Z,18.9
2016-09-19T07:43:28.356Z,18.35
2016-09-19T07:44:28.364Z,18.16
2016-09-19T07:45:28.469Z,18.34
2016-09-19T07:46:28.396Z,18.54
2016-09-19T07:47:28.492Z,18.5
2016-09-19T07:48:28.476Z,18.69
2016-09-19T07:49:28.435Z,18.93
2016-09-19T07:50:28.426Z,19.32
2016-09-19T07:51:28.294Z,19.6
2016-09-19T07:52:28.342Z,20.01
2016-09-19T07:53:28.484Z,20.19
2016-09-19T07:54:28.428Z,20.41
2016-09-19T07:55:28.345Z,20.6
2016-09-19T07:56:28.392Z,20.53
2016-09-19T07:57:28.391Z,20.66
2016-09-19T07:58:28.400Z,20.61
2016-09-19T07:59:28.400Z,20.66
2016-09-19T08:00:28.457Z,20.83
2016-09-19T08:01:28.399Z,20.58
2016-09-19T08:02:28.366Z,20.57
2016-09-19T08:03:28.514Z,20.98
2016-09-19T08:04:28.496Z,20.81
2016-09-19T08:05:28.327Z,20.66
2016-09-19T08:06:28.332Z,20.32
2016-09-19T08:07:28.454Z,19.67
2016-09-19T08:08:28.425Z,19.35
2016-09-19T08:09:28.561Z,19.4
2016-09-19T08:10:28.400Z,19.49
2016-09-19T08:11:28.445Z,19.61
2016-09-19T08:12:28.433Z,20
2016-09-19T08:13:28.352Z,20.79
2016-09-19T08:14:28.569Z,21.15
2016-09-19T08:15:28.551Z,21.23
2016-09-19T08:16:28.467Z,20.6
2016-09-19T08:17:28.402Z,21.01
2016-09-19T08:18:28.462Z,21.49
2016-09-19T08:19:28.420Z,21.82
2016-09-19T08:20:28.506Z,22.02
2016-09-19T08:21:28.561Z,22.2
2016-09-19T08:22:28.551Z,22.2
2016-09-19T08:23:28.544Z,22.6
2016-09-19T08:24:28.478Z,22.51
2016-09-19T08:25:29.100Z,22.39
2016-09-19T08:26:28.421Z,22.45
2016-09-19T08:27:28.518Z,22.57
2016-09-19T08:28:28.523Z,22.73
2016-09-19T08:29:28.600Z,22.89
2016-09-19T08:30:28.487Z,23.19
2016-09-19T08:31:28.497Z,23.09
2016-09-19T08:32:28.491Z,22.76
2016-09-19T08:33:28.588Z,22.15
2016-09-19T08:34:28.494Z,21.73
2016-09-19T08:35:28.510Z,21.21
2016-09-19T08:36:28.530Z,21.36
2016-09-19T08:37:28.435Z,21.55
2016-09-19T08:38:28.536Z,21.86
2016-09-19T08:39:28.583Z,21.23
2016-09-19T08:40:28.622Z,21.41
2016-09-19T08:41:28.537Z,22.2
2016-09-19T08:42:28.625Z,22.73
2016-09-19T08:43:28.596Z,22.84
2016-09-19T08:44:28.533Z,22.96
2016-09-19T08:45:28.521Z,23.01
2016-09-19T08:46:28.552Z,22.81
2016-09-19T08:47:28.583Z,22.92
2016-09-19T08:48:28.585Z,23.32
2016-09-19T08:49:29.196Z,23.12
2016-09-19T08:50:28.559Z,23.45
2016-09-19T08:51:28.514Z,23.57
2016-09-19T08:52:28.638Z,23.71
2016-09-19T08:53:28.712Z,23.48
2016-09-19T08:54:28.658Z,23.15
2016-09-19T08:55:28.634Z,22.45
2016-09-19T08:56:28.609Z,22.46
2016-09-19T08:57:28.537Z,22.24
2016-09-19T08:58:28.498Z,22.49
2016-09-19T08:59:28.674Z,22.61
2016-09-19T09:00:28.501Z,22.02
2016-09-19T09:01:28.565Z,21.08
2016-09-19T09:02:28.669Z,19.95
2016-09-19T09:03:28.736Z,19.93
2016-09-19T09:04:28.650Z,20.32
2016-09-19T09:05:28.597Z,20.3
2016-09-19T09:06:28.593Z,20.75
2016-09-19T09:07:28.710Z,20.94
2016-09-19T09:09:28.548Z,21.73
2016-09-19T09:10:28.702Z,21.94
2016-09-19T09:11:28.551Z,21.85
2016-09-19T09:12:28.680Z,21.83
2016-09-19T09:13:28.663Z,21.41
2016-09-19T09:14:28.660Z,20.51
2016-09-19T09:15:28.597Z,20.27
2016-09-19T09:16:28.617Z,20.32
2016-09-19T09:17:28.650Z,20.23
2016-09-19T09:18:28.630Z,20.29
2016-09-19T09:19:28.693Z,20.04
2016-09-19T09:20:28.692Z,20.38
2016-09-19T09:21:28.678Z,20.58
2016-09-19T09:22:28.715Z,20.78
2016-09-19T09:23:28.627Z,20.94
2016-09-19T09:24:28.663Z,21.27
2016-09-19T09:25:28.690Z,21.85
2016-09-19T09:26:28.750Z,22.34
2016-09-19T09:27:28.807Z,22.86
2016-09-19T09:28:28.716Z,23.04
2016-09-19T09:29:28.604Z,23.66
2016-09-19T09:30:28.719Z,24.07
2016-09-19T09:31:28.728Z,24.17
2016-09-19T09:32:28.657Z,24.26
2016-09-19T09:33:28.725Z,23.79
2016-09-19T09:34:28.756Z,23.55
2016-09-19T09:35:28.611Z,23.94
2016-09-19T09:36:28.790Z,24.7
2016-09-19T09:37:28.772Z,24.87
2016-09-19T09:38:28.768Z,24.8
2016-09-19T09:39:28.771Z,25.3
2016-09-19T09:40:28.697Z,25.59
2016-09-19T09:41:28.663Z,25.47
2016-09-19T09:42:28.763Z,25.6
2016-09-19T09:43:28.724Z,25.7
2016-09-19T09:44:28.723Z,25.62
2016-09-19T09:45:28.793Z,24.94
2016-09-19T09:46:28.713Z,24.32
2016-09-19T09:47:28.698Z,24.02
2016-09-19T09:48:28.811Z,24
2016-09-19T09:49:28.749Z,23.97
2016-09-19T09:50:28.724Z,23.63
2016-09-19T09:51:28.802Z,23.59
2016-09-19T09:52:28.764Z,22.89
2016-09-19T09:53:28.817Z,21.94
2016-09-19T09:54:28.730Z,21.8
2016-09-19T09:55:28.766Z,22
2016-09-19T09:56:28.741Z,23.18
2016-09-19T09:57:28.840Z,23.78
2016-09-19T09:58:28.815Z,24.7
2016-09-19T09:59:28.829Z,25.23
2016-09-19T10:00:28.696Z,25.45
2016-09-19T10:01:28.764Z,25.12
2016-09-19T10:02:28.807Z,24.08
2016-09-19T10:03:28.722Z,24.22
2016-09-19T10:04:29.113Z,24.85
2016-09-19T10:05:29.758Z,25.49
2016-09-19T10:06:28.865Z,25.41
2016-09-19T10:07:28.822Z,25.26
2016-09-19T10:08:28.832Z,25.44
2016-09-19T10:09:28.842Z,25.27
2016-09-19T10:10:28.865Z,25.79
2016-09-19T10:11:28.873Z,26.38
2016-09-19T10:12:28.908Z,26.45
2016-09-19T10:13:28.878Z,26.44
2016-09-19T10:14:28.858Z,26.54
2016-09-19T10:15:29.004Z,26.74
2016-09-19T10:16:29.306Z,26.9
2016-09-19T10:17:29.058Z,26.49
2016-09-19T10:18:29.102Z,25.22
2016-09-19T10:19:29.138Z,26.07
2016-09-19T10:20:28.876Z,26.59
2016-09-19T10:21:28.840Z,26.57
2016-09-19T10:22:28.820Z,25.89
2016-09-19T10:23:28.810Z,24.78
2016-09-19T10:24:28.845Z,23.47
2016-09-19T10:25:28.931Z,23.34
2016-09-19T10:26:28.804Z,23.26
2016-09-19T10:27:28.842Z,22.92
2016-09-19T10:28:28.906Z,22.78
2016-09-19T10:29:28.843Z,22.94
2016-09-19T10:30:28.928Z,23.4
2016-09-19T10:31:28.845Z,23.41
2016-09-19T10:32:28.850Z,23.07
2016-09-19T10:33:28.931Z,22.49
2016-09-19T10:34:28.963Z,22.18
2016-09-19T10:35:28.958Z,22.44
2016-09-19T10:36:28.910Z,22.82
2016-09-19T10:37:28.956Z,22.64
2016-09-19T10:38:28.948Z,22.39
2016-09-19T10:39:28.875Z,22.69
2016-09-19T10:40:28.963Z,22.89
2016-09-19T10:41:28.903Z,23.7
2016-09-19T10:42:28.890Z,24.78
2016-09-19T10:43:28.907Z,25.17
2016-09-19T10:44:28.892Z,25.88
2016-09-19T10:45:28.971Z,25.7
2016-09-19T10:46:28.979Z,24.87
2016-09-19T10:47:28.993Z,24.54
2016-09-19T10:48:29.025Z,24.55
2016-09-19T10:49:28.967Z,24.61
2016-09-19T10:50:29.022Z,24.36
2016-09-19T10:51:28.907Z,24.58
2016-09-19T10:52:28.943Z,24.02
2016-09-19T10:53:28.985Z,24.3
2016-09-19T10:54:28.920Z,22.29
2016-09-19T10:55:28.955Z,21.85
2016-09-19T10:56:28.943Z,22.44
2016-09-19T10:57:28.914Z,23.12
2016-09-19T10:58:28.898Z,24.08
2016-09-19T10:59:28.928Z,25.24
2016-09-19T11:00:28.888Z,26.04
2016-09-19T11:01:29.042Z,26.63
2016-09-19T11:02:29.556Z,26.37
2016-09-19T11:03:29.009Z,24.78
2016-09-19T11:04:30.649Z,25.11
2016-09-19T11:05:28.983Z,25.66
2016-09-19T11:06:28.870Z,25.66
2016-09-19T11:07:28.986Z,25.69
2016-09-19T11:08:28.980Z,25.86
2016-09-19T11:09:28.993Z,25.08
2016-09-19T11:10:28.930Z,25.33
2016-09-19T11:11:29.170Z,25.96
2016-09-19T11:12:28.976Z,26.53
2016-09-19T11:13:29.311Z,25.49
2016-09-19T11:14:29.014Z,24.63
2016-09-19T11:15:29.049Z,24.77
2016-09-19T11:16:29.027Z,25.12
2016-09-19T11:17:28.935Z,25.79
2016-09-19T11:19:29.016Z,26.67
2016-09-19T11:20:29.026Z,26.86
2016-09-19T11:21:29.026Z,26.01
2016-09-19T11:22:28.933Z,25.51
2016-09-19T11:23:29.047Z,24.77
2016-09-19T11:24:29.014Z,24.66
2016-09-19T11:25:29.070Z,24.61
2016-09-19T11:26:29.130Z,25.07
2016-09-19T11:27:29.168Z,25.32
2016-09-19T11:28:29.769Z,25.67
2016-09-19T11:29:29.099Z,26.24
2016-09-19T11:30:29.026Z,26.42
2016-09-19T11:31:29.226Z,25.81
2016-09-19T11:32:28.984Z,25.76
2016-09-19T11:33:29.080Z,25.69
2016-09-19T11:34:29.100Z,25.93
2016-09-19T11:35:29.092Z,26.23
2016-09-19T11:36:29.103Z,26.45
2016-09-19T11:37:29.134Z,26.53
2016-09-19T11:38:29.524Z,26.09
2016-09-19T11:39:29.042Z,25.82
2016-09-19T11:40:29.085Z,25.33
2016-09-19T11:41:28.981Z,25.38
2016-09-19T11:42:29.105Z,25.22
2016-09-19T11:43:29.175Z,25.11
2016-09-19T11:44:29.113Z,24.86
2016-09-19T11:45:29.108Z,24.48
2016-09-19T11:46:29.132Z,24.27
2016-09-19T11:47:29.069Z,23.84
2016-09-19T11:49:29.036Z,23.87
2016-09-19T11:50:29.068Z,23.77
2016-09-19T11:51:29.184Z,23.74
2016-09-19T11:52:29.097Z,23.82
2016-09-19T11:53:29.168Z,23.77
2016-09-19T11:54:29.194Z,23.32
2016-09-19T11:55:29.190Z,23.32
2016-09-19T11:56:29.169Z,23.34
2016-09-19T11:57:29.026Z,23.37
2016-09-19T11:58:29.032Z,23.42
2016-09-19T11:59:29.184Z,23.55
2016-09-19T12:00:29.125Z,23.74
2016-09-19T12:01:29.135Z,23.72
2016-09-19T12:02:29.190Z,23.52
2016-09-19T12:03:29.127Z,23.74
2016-09-19T12:04:29.233Z,24.02
2016-09-19T12:05:29.179Z,23.66
2016-09-19T12:06:29.215Z,23.34
2016-09-19T12:07:29.278Z,22.92
2016-09-19T12:08:29.211Z,22.3
2016-09-19T12:09:29.182Z,22.44
2016-09-19T12:10:29.313Z,22.61
2016-09-19T12:11:29.251Z,22.71
2016-09-19T12:12:29.186Z,22.89
2016-09-19T12:13:29.188Z,23.26
2016-09-19T12:14:29.232Z,22.85
2016-09-19T12:15:29.239Z,22.41
2016-09-19T12:16:29.133Z,22.31
2016-09-19T12:17:29.270Z,22.71
2016-09-19T12:18:29.122Z,22.94
2016-09-19T12:19:29.168Z,23.15
2016-09-19T12:20:29.112Z,23.03
2016-09-19T12:21:29.155Z,23.28
2016-09-19T12:22:29.156Z,23.67
2016-09-19T12:23:29.208Z,24.09
2016-09-19T12:24:29.097Z,23.29
2016-09-19T12:25:29.186Z,23.34
2016-09-19T12:26:29.258Z,23.97
2016-09-19T12:27:29.251Z,24.4
2016-09-19T12:28:29.165Z,24.67
2016-09-19T12:29:29.238Z,24.29
2016-09-19T12:30:29.172Z,23.96
2016-09-19T12:31:29.177Z,23.94
2016-09-19T12:32:29.339Z,23.82
2016-09-19T12:33:29.296Z,23.03
2016-09-19T12:34:29.248Z,22.86
2016-09-19T12:35:29.963Z,22.55
2016-09-19T12:36:29.251Z,23.21
2016-09-19T12:37:29.305Z,23.79
2016-09-19T12:38:29.309Z,24.63
2016-09-19T12:39:29.327Z,25.2
2016-09-19T12:40:29.306Z,25.02
2016-09-19T12:41:29.277Z,25
2016-09-19T12:42:29.192Z,24.77
2016-09-19T12:43:29.316Z,25.12
2016-09-19T12:44:29.168Z,25.14
2016-09-19T12:45:29.179Z,25.26
2016-09-19T12:46:29.207Z,25.32
2016-09-19T12:47:29.242Z,25.34
2016-09-19T12:48:29.302Z,25.44
2016-09-19T12:49:29.260Z,25.26
2016-09-19T12:50:29.281Z,24.67
2016-09-19T12:51:30.685Z,24.63
2016-09-19T12:52:29.302Z,24.4
2016-09-19T12:53:29.311Z,24.36
2016-09-19T12:54:29.467Z,23.45
2016-09-19T12:55:29.227Z,23.44
2016-09-19T12:56:29.348Z,22.76
2016-09-19T12:57:29.324Z,22.51
2016-09-19T12:58:29.373Z,22.2
2016-09-19T12:59:29.372Z,21.55